createdAt,value
2022-12-11T00:02:00.425Z,3.71
2022-12-11T00:04:27.845Z,3.67
2022-12-11T00:06:55.410Z,3.59
2022-12-11T00:09:23.100Z,3.58
2022-12-11T00:11:50.197Z,3.55
2022-12-11T00:14:17.748Z,3.57
2022-12-11T00:16:45.466Z,3.51
2022-12-11T00:19:13.850Z,3.47
2022-12-11T00:21:41.370Z,3.49
2022-12-11T00:24:09.144Z,3.47
2022-12-11T00:26:36.854Z,3.45
2022-12-11T00:29:04.210Z,3.43
2022-12-11T00:31:32.054Z,3.41
2022-12-11T00:34:01.367Z,3.44
2022-12-11T00:36:29.029Z,3.43
2022-12-11T00:38:56.220Z,3.44
2022-12-11T00:41:23.995Z,3.40
2022-12-11T00:43:51.250Z,3.46
2022-12-11T00:46:19.086Z,3.43
2022-12-11T00:48:46.624Z,3.40
2022-12-11T00:51:14.113Z,3.44
2022-12-11T00:53:41.665Z,3.44
2022-12-11T00:56:13.930Z,3.41
2022-12-11T00:58:41.415Z,3.29
2022-12-11T01:01:11.050Z,3.33
2022-12-11T01:03:38.670Z,3.33
2022-12-11T01:06:06.872Z,3.33
2022-12-11T01:08:38.522Z,3.27
2022-12-11T01:11:08.874Z,3.24
2022-12-11T01:13:36.171Z,3.19
2022-12-11T01:16:11.337Z,3.17
2022-12-11T01:18:38.677Z,3.15
2022-12-11T01:21:12.052Z,3.09
2022-12-11T01:23:40.280Z,3.06
2022-12-11T01:26:13.337Z,2.98
2022-12-11T01:28:41.617Z,2.93
2022-12-11T01:31:13.405Z,2.86
2022-12-11T01:33:41.284Z,2.83
2022-12-11T01:36:18.798Z,2.80
2022-12-11T01:38:47.244Z,2.76
2022-12-11T01:41:15.512Z,2.74
2022-12-11T01:44:08.802Z,2.74
2022-12-11T01:46:37.293Z,2.70
2022-12-11T01:49:08.294Z,2.65
2022-12-11T01:51:42.623Z,2.60
2022-12-11T01:54:12.487Z,2.53
2022-12-11T01:56:40.491Z,2.46
2022-12-11T01:59:10.073Z,2.44
2022-12-11T02:01:41.513Z,2.31
2022-12-11T02:04:10.075Z,2.26
2022-12-11T02:06:42.308Z,2.25
2022-12-11T02:09:13.310Z,2.23
2022-12-11T02:12:01.708Z,2.17
2022-12-11T02:14:50.426Z,2.12
2022-12-11T02:17:20.082Z,2.10
2022-12-11T02:20:02.084Z,2.09
2022-12-11T02:22:48.317Z,2.00
2022-12-11T02:25:27.826Z,1.98
2022-12-11T02:28:18.090Z,1.97
2022-12-11T02:30:52.510Z,1.86
2022-12-11T02:33:24.328Z,1.75
2022-12-11T02:35:51.834Z,1.75
2022-12-11T02:38:27.357Z,1.66
2022-12-11T02:40:56.223Z,1.71
2022-12-11T02:43:24.331Z,1.65
2022-12-11T02:45:52.307Z,1.66
2022-12-11T02:48:21.275Z,1.60
2022-12-11T02:50:52.100Z,1.55
2022-12-11T02:53:22.104Z,1.54
2022-12-11T02:55:53.102Z,1.56
2022-12-11T02:58:24.436Z,1.59
2022-12-11T03:00:51.871Z,1.53
2022-12-11T03:03:19.533Z,1.52
2022-12-11T03:05:47.213Z,1.59
2022-12-11T03:08:18.955Z,1.63
2022-12-11T03:10:46.543Z,1.64
2022-12-11T03:13:14.540Z,1.62
2022-12-11T03:15:58.324Z,1.65
2022-12-11T03:18:39.357Z,1.67
2022-12-11T03:21:20.249Z,1.66
2022-12-11T03:24:04.547Z,1.69
2022-12-11T03:26:36.119Z,1.71
2022-12-11T03:29:09.120Z,1.72
2022-12-11T03:31:36.552Z,1.74
2022-12-11T03:34:11.125Z,1.76
2022-12-11T03:36:39.558Z,1.78
2022-12-11T03:39:10.360Z,1.75
2022-12-11T03:41:39.128Z,1.72
2022-12-11T03:44:08.037Z,1.68
2022-12-11T03:46:38.469Z,1.69
2022-12-11T03:49:16.133Z,1.72
2022-12-11T03:51:45.380Z,1.71
2022-12-11T03:54:13.381Z,1.72
2022-12-11T03:56:41.273Z,1.73
2022-12-11T03:59:09.135Z,1.68
2022-12-11T04:01:36.658Z,1.74
2022-12-11T04:04:04.213Z,1.74
2022-12-11T04:06:32.041Z,1.74
2022-12-11T04:08:59.392Z,1.70
2022-12-11T04:11:35.793Z,1.67
2022-12-11T04:14:24.144Z,1.70
2022-12-11T04:16:51.686Z,1.72
2022-12-11T04:19:38.399Z,1.62
2022-12-11T04:22:34.579Z,1.62
2022-12-11T04:25:03.140Z,1.65
2022-12-11T04:27:49.063Z,1.64
2022-12-11T04:30:22.160Z,1.65
2022-12-11T04:32:50.561Z,1.67
2022-12-11T04:35:18.700Z,1.68
2022-12-11T04:37:46.600Z,1.60
2022-12-11T04:40:16.414Z,1.59
2022-12-11T04:42:43.967Z,1.49
2022-12-11T04:45:12.497Z,1.56
2022-12-11T04:47:41.081Z,1.58
2022-12-11T04:50:13.097Z,1.57
2022-12-11T04:52:40.535Z,1.53
2022-12-11T04:55:09.158Z,1.54
2022-12-11T04:57:37.577Z,1.43
2022-12-11T05:00:10.167Z,1.44
2022-12-11T05:02:40.224Z,1.46
2022-12-11T05:05:10.396Z,1.47
2022-12-11T05:07:38.340Z,1.50
2022-12-11T05:10:06.924Z,1.51
2022-12-11T05:12:34.174Z,1.55
2022-12-11T05:15:01.928Z,1.52
2022-12-11T05:17:29.816Z,1.48
2022-12-11T05:19:57.179Z,1.48
2022-12-11T05:22:24.821Z,1.52
2022-12-11T05:24:52.180Z,1.54
2022-12-11T05:27:19.935Z,1.59
2022-12-11T05:29:48.082Z,1.57
2022-12-11T05:32:15.823Z,1.58
2022-12-11T05:34:43.186Z,1.57
2022-12-11T05:37:10.827Z,1.54
2022-12-11T05:39:38.673Z,1.57
2022-12-11T05:42:06.456Z,1.58
2022-12-11T05:44:34.190Z,1.57
2022-12-11T05:47:02.122Z,1.54
2022-12-11T05:49:31.147Z,1.49
2022-12-11T05:51:59.194Z,1.50
2022-12-11T05:54:26.948Z,1.53
2022-12-11T05:56:55.196Z,1.59
2022-12-11T05:59:22.467Z,1.58
2022-12-11T06:01:49.829Z,1.57
2022-12-11T06:04:17.660Z,1.58
2022-12-11T06:06:45.200Z,1.61
2022-12-11T06:09:16.474Z,1.54
2022-12-11T06:11:43.959Z,1.55
2022-12-11T06:14:12.352Z,1.53
2022-12-11T06:16:40.552Z,1.46
2022-12-11T06:19:08.146Z,1.44
2022-12-11T06:21:36.208Z,1.46
2022-12-11T06:24:04.673Z,1.51
2022-12-11T06:26:32.855Z,1.51
2022-12-11T06:31:28.885Z,1.54
2022-12-11T06:33:56.859Z,1.51
2022-12-11T06:36:25.365Z,1.53
2022-12-11T06:38:53.656Z,1.51
2022-12-11T06:41:21.685Z,1.44
2022-12-11T06:43:49.978Z,1.50
2022-12-11T06:46:19.729Z,1.56
2022-12-11T06:48:48.376Z,1.48
2022-12-11T06:51:18.504Z,1.47
2022-12-11T06:53:53.376Z,1.53
2022-12-11T06:56:22.170Z,1.56
2022-12-11T06:58:49.987Z,1.58
2022-12-11T07:01:20.431Z,1.58
2022-12-11T07:03:48.624Z,1.52
2022-12-11T07:06:16.233Z,1.48
2022-12-11T07:08:44.142Z,1.56
2022-12-11T07:11:14.995Z,1.58
2022-12-11T07:13:43.168Z,1.57
2022-12-11T07:16:13.313Z,1.60
2022-12-11T07:18:42.958Z,1.69
2022-12-11T07:21:10.726Z,1.82
2022-12-11T07:23:38.889Z,1.87
2022-12-11T07:26:08.715Z,1.88
2022-12-11T07:28:36.717Z,1.88
2022-12-11T07:31:13.246Z,1.89
2022-12-11T07:33:41.720Z,1.96
2022-12-11T07:36:11.127Z,1.94
2022-12-11T07:38:38.897Z,1.98
2022-12-11T07:41:08.899Z,1.98
2022-12-11T07:43:37.539Z,2.00
2022-12-11T07:46:07.323Z,1.99
2022-12-11T07:48:39.543Z,2.06
2022-12-11T07:51:17.410Z,2.05
2022-12-11T07:53:47.762Z,2.11
2022-12-11T07:56:16.254Z,2.18
2022-12-11T07:58:44.551Z,2.20
2022-12-11T08:01:23.802Z,2.24
2022-12-11T08:03:51.414Z,2.25
2022-12-11T08:06:19.913Z,2.31
2022-12-11T08:08:47.721Z,2.29
2022-12-11T08:11:16.262Z,2.33
2022-12-11T08:13:44.160Z,2.26
2022-12-11T08:16:15.304Z,2.31
2022-12-11T08:18:43.761Z,2.29
2022-12-11T08:21:15.367Z,2.26
2022-12-11T08:23:42.922Z,2.26
2022-12-11T08:26:14.424Z,2.16
2022-12-11T08:28:42.077Z,2.12
2022-12-11T08:31:11.296Z,2.17
2022-12-11T08:33:40.026Z,2.15
2022-12-11T08:36:09.928Z,2.12
2022-12-11T08:38:37.766Z,2.13
2022-12-11T08:41:14.271Z,2.06
2022-12-11T08:43:42.029Z,2.06
2022-12-11T08:46:10.965Z,2.11
2022-12-11T08:48:39.937Z,2.12
2022-12-11T08:51:09.280Z,2.13
2022-12-11T08:53:37.441Z,2.05
2022-12-11T08:56:10.247Z,2.06
2022-12-11T08:58:38.727Z,2.08
2022-12-11T09:01:10.372Z,2.11
2022-12-11T09:03:38.782Z,2.10
2022-12-11T09:06:07.948Z,2.11
2022-12-11T09:08:35.949Z,2.03
2022-12-11T09:11:12.199Z,2.09
2022-12-11T09:13:40.446Z,2.10
2022-12-11T09:16:11.638Z,2.13
2022-12-11T09:18:39.954Z,2.16
2022-12-11T09:21:14.070Z,2.14
2022-12-11T09:23:42.432Z,2.23
2022-12-11T09:26:13.287Z,2.23
2022-12-11T09:28:46.275Z,2.15
2022-12-11T09:31:17.061Z,2.14
2022-12-11T09:33:45.078Z,2.14
2022-12-11T09:36:12.738Z,2.12
2022-12-11T09:38:40.456Z,2.13
2022-12-11T09:41:37.455Z,2.20
2022-12-11T09:44:33.394Z,2.22
2022-12-11T09:47:01.460Z,2.25
2022-12-11T09:49:41.927Z,2.26
2022-12-11T09:52:18.817Z,2.29
2022-12-11T09:54:59.286Z,2.28
2022-12-11T09:57:35.977Z,2.29
2022-12-11T10:00:20.718Z,2.29
2022-12-11T10:03:12.729Z,2.34
2022-12-11T10:05:52.641Z,2.29
2022-12-11T10:08:54.332Z,2.25
2022-12-11T10:11:40.493Z,2.28
2022-12-11T10:14:22.194Z,2.28
2022-12-11T10:16:52.947Z,2.32
2022-12-11T10:19:27.990Z,2.28
2022-12-11T10:21:56.304Z,2.30
2022-12-11T10:25:09.375Z,2.35
2022-12-11T10:27:34.842Z,2.30
2022-12-11T10:30:16.711Z,2.33
2022-12-11T10:33:06.999Z,2.34
2022-12-11T10:35:46.113Z,2.33
2022-12-11T10:38:22.115Z,2.33
2022-12-11T10:40:56.801Z,2.36
2022-12-11T10:43:35.004Z,2.27
2022-12-11T10:46:02.884Z,2.20
2022-12-11T10:48:31.010Z,2.22
2022-12-11T10:51:05.122Z,2.22
2022-12-11T10:53:33.010Z,2.20
2022-12-11T10:56:01.020Z,2.23
2022-12-11T10:58:34.566Z,2.21
2022-12-11T11:01:09.262Z,2.09
2022-12-11T11:03:44.320Z,2.15
2022-12-11T11:06:20.321Z,2.16
2022-12-11T11:08:50.498Z,2.20
2022-12-11T11:11:34.576Z,2.22
2022-12-11T11:14:18.023Z,2.26
2022-12-11T11:16:48.028Z,2.28
2022-12-11T11:19:23.139Z,2.33
2022-12-11T11:21:53.027Z,2.31
2022-12-11T11:24:41.275Z,2.42
2022-12-11T11:27:30.503Z,2.46
2022-12-11T11:30:01.695Z,2.55
2022-12-11T11:32:39.327Z,2.61
2022-12-11T11:35:13.337Z,2.60
2022-12-11T11:37:45.508Z,2.66
2022-12-11T11:40:18.892Z,2.73
2022-12-11T11:43:08.152Z,2.71
2022-12-11T11:45:44.897Z,2.68
2022-12-11T11:48:21.711Z,2.63
2022-12-11T11:50:51.157Z,2.60
2022-12-11T11:53:31.519Z,2.51
2022-12-11T11:56:06.338Z,2.54
2022-12-11T11:58:46.196Z,2.50
2022-12-11T12:01:17.718Z,2.52
2022-12-11T12:03:46.052Z,2.40
2022-12-11T12:06:50.778Z,2.39
2022-12-11T12:09:35.373Z,2.53
2022-12-11T12:12:05.724Z,2.53
2022-12-11T12:17:36.427Z,2.47
2022-12-11T12:20:20.347Z,2.40
2022-12-11T12:23:19.575Z,2.37
2022-12-11T12:25:53.348Z,2.41
2022-12-11T12:28:35.928Z,2.43
2022-12-11T12:31:36.810Z,2.43
2022-12-11T12:34:28.391Z,2.47
2022-12-11T12:37:01.938Z,2.44
2022-12-11T12:40:02.069Z,2.50
2022-12-11T12:42:52.705Z,2.54
2022-12-11T12:45:35.511Z,2.55
2022-12-11T12:48:03.355Z,2.55
2022-12-11T12:50:39.357Z,2.57
2022-12-11T12:53:07.946Z,2.51
2022-12-11T12:55:36.357Z,2.50
2022-12-11T12:58:06.741Z,2.56
2022-12-11T13:00:38.142Z,2.56
2022-12-11T13:03:21.331Z,2.60
2022-12-11T13:06:08.549Z,2.57
2022-12-11T13:08:44.862Z,2.59
2022-12-11T13:11:13.549Z,2.50
2022-12-11T13:13:50.194Z,2.51
2022-12-11T13:16:20.813Z,2.42
2022-12-11T13:18:48.654Z,2.47
2022-12-11T13:21:40.561Z,2.52
2022-12-11T13:24:20.325Z,2.26
2022-12-11T13:26:49.199Z,2.22
2022-12-11T13:29:37.561Z,2.29
2022-12-11T13:32:08.287Z,2.26
2022-12-11T13:34:40.107Z,2.32
2022-12-11T13:37:17.373Z,2.33
2022-12-11T13:39:47.110Z,2.36
2022-12-11T13:42:35.790Z,2.38
2022-12-11T13:45:04.208Z,2.39
2022-12-11T13:47:32.376Z,2.32
2022-12-11T13:50:27.211Z,2.34
2022-12-11T13:53:00.212Z,2.33
2022-12-11T13:55:30.380Z,2.30
2022-12-11T13:57:58.381Z,2.31
2022-12-11T14:00:28.383Z,2.26
2022-12-11T14:02:57.383Z,2.26
2022-12-11T14:05:24.917Z,2.25
2022-12-11T14:07:54.428Z,2.18
2022-12-11T14:10:24.741Z,2.15
2022-12-11T14:12:53.388Z,2.16
2022-12-11T14:15:21.132Z,2.18
2022-12-11T14:17:51.877Z,2.12
2022-12-11T14:20:24.976Z,2.07
2022-12-11T14:22:52.340Z,2.09
2022-12-11T14:25:28.544Z,2.02
2022-12-11T14:27:57.140Z,1.99
2022-12-11T14:30:27.531Z,1.94
2022-12-11T14:32:58.392Z,1.95
2022-12-11T14:35:35.551Z,1.98
2022-12-11T14:38:09.394Z,1.90
2022-12-11T14:40:40.254Z,1.93
2022-12-11T14:43:23.489Z,1.91
2022-12-11T14:45:56.506Z,1.88
2022-12-11T14:48:27.721Z,1.88
2022-12-11T14:50:58.326Z,1.86
2022-12-11T14:53:40.740Z,1.83
2022-12-11T14:56:14.330Z,1.84
2022-12-11T14:58:45.599Z,1.80
2022-12-11T15:01:35.068Z,1.75
2022-12-11T15:04:14.404Z,1.81
2022-12-11T15:06:50.164Z,1.77
2022-12-11T15:09:43.406Z,1.71
2022-12-11T15:12:13.500Z,1.70
2022-12-11T15:14:47.687Z,1.66
2022-12-11T15:17:15.606Z,1.69
2022-12-11T15:19:47.608Z,1.63
2022-12-11T15:22:16.174Z,1.58
2022-12-11T15:24:44.507Z,1.60
2022-12-11T15:27:34.415Z,1.61
2022-12-11T15:30:15.056Z,1.60
2022-12-11T15:32:42.613Z,1.51
2022-12-11T15:35:27.359Z,1.50
2022-12-11T15:37:56.512Z,1.57
2022-12-11T15:40:24.573Z,1.51
2022-12-11T15:42:52.874Z,1.48
2022-12-11T15:45:22.422Z,1.52
2022-12-11T15:47:50.365Z,1.47
2022-12-11T15:50:25.624Z,1.41
2022-12-11T15:52:54.369Z,1.42
2022-12-11T15:55:23.074Z,1.35
2022-12-11T15:58:02.491Z,1.37
2022-12-11T16:00:29.715Z,1.33
2022-12-11T16:02:57.660Z,1.26
2022-12-11T16:05:26.198Z,1.26
2022-12-11T16:07:54.946Z,1.22
2022-12-11T16:10:22.631Z,1.22
2022-12-11T16:12:50.313Z,1.22
2022-12-11T16:15:23.233Z,1.19
2022-12-11T16:17:59.502Z,1.21
2022-12-11T16:20:27.211Z,1.19
2022-12-11T16:22:54.319Z,1.19
2022-12-11T16:25:21.504Z,1.19
2022-12-11T16:27:48.629Z,1.16
2022-12-11T16:30:16.394Z,1.18
2022-12-11T16:32:44.394Z,1.21
2022-12-11T16:35:11.799Z,1.21
2022-12-11T16:37:39.508Z,1.19
2022-12-11T16:40:07.557Z,1.23
2022-12-11T16:42:35.221Z,1.20
2022-12-11T16:45:08.700Z,1.20
2022-12-11T16:47:36.109Z,1.20
2022-12-11T16:50:03.646Z,1.18
2022-12-11T16:52:32.373Z,1.11
2022-12-11T16:54:59.375Z,1.11
2022-12-11T16:57:26.519Z,1.10
2022-12-11T16:59:54.077Z,1.09
2022-12-11T17:02:21.395Z,1.04
2022-12-11T17:04:53.627Z,1.01
2022-12-11T17:07:21.418Z,1.04
2022-12-11T17:09:48.655Z,1.02
2022-12-11T17:12:16.128Z,0.95
2022-12-11T17:14:43.528Z,0.88
2022-12-11T17:17:10.857Z,0.93
2022-12-11T17:19:37.940Z,0.83
2022-12-11T17:22:05.401Z,0.86
2022-12-11T17:24:32.663Z,0.84
2022-12-11T17:27:00.453Z,0.84
2022-12-11T17:29:27.533Z,0.87
2022-12-11T17:31:55.141Z,0.90
2022-12-11T17:34:22.458Z,0.92
2022-12-11T17:36:49.778Z,0.92
2022-12-11T17:39:17.402Z,0.97
2022-12-11T17:41:44.785Z,0.99
2022-12-11T17:44:12.670Z,0.94
2022-12-11T17:46:39.910Z,0.89
2022-12-11T17:49:07.153Z,0.93
2022-12-11T17:51:34.447Z,0.94
2022-12-11T17:54:01.676Z,0.95
2022-12-11T17:56:29.325Z,0.87
2022-12-11T17:58:56.966Z,0.91
2022-12-11T18:01:24.512Z,0.87
2022-12-11T18:03:52.198Z,0.81
2022-12-11T18:06:19.420Z,0.78
2022-12-11T18:08:46.965Z,0.84
2022-12-11T18:11:16.976Z,0.85
2022-12-11T18:13:45.385Z,0.87
2022-12-11T18:16:15.240Z,0.88
2022-12-11T18:18:42.426Z,0.81
2022-12-11T18:21:13.469Z,0.86
2022-12-11T18:23:40.690Z,0.91
2022-12-11T18:26:08.180Z,0.87
2022-12-11T18:28:35.563Z,0.85
2022-12-11T18:31:03.748Z,0.83
2022-12-11T18:33:32.372Z,0.82
2022-12-11T18:35:59.567Z,0.85
2022-12-11T18:38:27.190Z,0.87
2022-12-11T18:40:54.441Z,0.74
2022-12-11T18:43:21.641Z,0.82
2022-12-11T18:45:49.193Z,0.85
2022-12-11T18:48:16.572Z,0.78
2022-12-11T18:50:46.002Z,0.59
2022-12-11T18:53:13.577Z,0.63
2022-12-11T18:55:43.265Z,0.73
2022-12-11T18:58:11.626Z,0.72
2022-12-11T19:00:40.877Z,0.65
2022-12-11T19:03:09.205Z,0.68
2022-12-11T19:05:36.581Z,0.63
2022-12-11T19:08:04.481Z,0.67
2022-12-11T19:10:31.809Z,0.59
2022-12-11T19:12:59.459Z,0.64
2022-12-11T19:15:27.844Z,0.64
2022-12-11T19:17:55.216Z,0.65
2022-12-11T19:20:47.980Z,0.63
2022-12-11T19:23:10.466Z,0.66
2022-12-11T19:25:47.849Z,0.65
2022-12-11T19:28:15.642Z,0.68
2022-12-11T19:30:47.434Z,0.65
2022-12-11T19:33:15.517Z,0.68
2022-12-11T19:35:43.473Z,0.66
2022-12-11T19:38:11.328Z,0.66
2022-12-11T19:40:42.650Z,0.72
2022-12-11T19:43:10.235Z,0.59
2022-12-11T19:45:37.526Z,0.65
2022-12-11T19:48:05.043Z,0.63
2022-12-11T19:50:32.604Z,0.56
2022-12-11T19:53:00.336Z,0.56
2022-12-11T19:55:27.532Z,0.50
2022-12-11T19:57:55.731Z,0.43
2022-12-11T20:00:23.490Z,0.41
2022-12-11T20:02:51.449Z,0.36
2022-12-11T20:05:19.052Z,0.45
2022-12-11T20:07:46.675Z,0.46
2022-12-11T20:10:14.349Z,0.36
2022-12-11T20:12:41.736Z,0.34
2022-12-11T20:15:09.691Z,0.30
2022-12-11T20:17:38.277Z,0.30
2022-12-11T20:20:06.460Z,0.31
2022-12-11T20:22:33.618Z,0.23
2022-12-11T20:25:00.889Z,0.29
2022-12-11T20:27:28.555Z,0.24
2022-12-11T20:29:56.070Z,0.24
2022-12-11T20:32:23.558Z,0.24
2022-12-11T20:34:51.075Z,0.30
2022-12-11T20:37:18.469Z,0.32
2022-12-11T20:39:45.686Z,0.31
2022-12-11T20:42:13.473Z,0.27
2022-12-11T20:44:45.670Z,0.34
2022-12-11T20:47:16.894Z,0.22
2022-12-11T20:49:44.477Z,0.20
2022-12-11T20:52:11.690Z,0.23
2022-12-11T20:54:39.287Z,0.23
2022-12-11T20:57:06.634Z,0.15
2022-12-11T20:59:34.091Z,0.09
2022-12-11T21:02:01.745Z,0.12
2022-12-11T21:04:29.486Z,0.13
2022-12-11T21:06:56.916Z,0.07
2022-12-11T21:09:26.700Z,-0.01
2022-12-11T21:11:54.296Z,-0.05
2022-12-11T21:14:21.702Z,-0.10
2022-12-11T21:16:49.437Z,-0.12
2022-12-11T21:19:17.271Z,-0.08
2022-12-11T21:21:45.500Z,-0.13
2022-12-11T21:24:27.538Z,-0.16
2022-12-11T21:26:57.544Z,-0.17
2022-12-11T21:29:26.649Z,-0.15
2022-12-11T21:31:54.376Z,-0.12
2022-12-11T21:34:25.213Z,-0.17
2022-12-11T21:36:56.881Z,-0.13
2022-12-11T21:39:25.528Z,-0.18
2022-12-11T21:41:52.684Z,-0.20
2022-12-11T21:47:07.406Z,-0.28
2022-12-11T21:49:35.778Z,-0.31
2022-12-11T21:52:03.587Z,-0.43
2022-12-11T21:54:31.128Z,-0.47
2022-12-11T21:56:58.329Z,-0.51
2022-12-11T21:59:25.625Z,-0.47
2022-12-11T22:01:52.924Z,-0.47
2022-12-11T22:04:20.730Z,-0.42
2022-12-11T22:06:48.442Z,-0.51
2022-12-11T22:09:16.640Z,-0.55
2022-12-11T22:11:45.555Z,-0.56
2022-12-11T22:14:14.628Z,-0.58
2022-12-11T22:16:42.795Z,-0.59
2022-12-11T22:19:10.660Z,-0.56
2022-12-11T22:21:38.530Z,-0.56
2022-12-11T22:24:06.432Z,-0.57
2022-12-11T22:26:33.744Z,-0.60
2022-12-11T22:29:01.420Z,-0.65
2022-12-11T22:31:28.748Z,-0.63
2022-12-11T22:33:56.538Z,-0.63
2022-12-11T22:36:24.748Z,-0.71
2022-12-11T22:38:52.540Z,-0.71
2022-12-11T22:41:28.363Z,-0.71
2022-12-11T22:43:55.842Z,-0.67
2022-12-11T22:46:26.544Z,-0.71
2022-12-11T22:48:54.364Z,-0.72
2022-12-11T22:51:21.985Z,-0.73
2022-12-11T22:53:49.656Z,-0.79
2022-12-11T22:56:17.656Z,-0.83
2022-12-11T22:58:45.174Z,-0.83
2022-12-11T23:01:15.373Z,-0.85
2022-12-11T23:03:42.833Z,-0.90
2022-12-11T23:06:12.769Z,-0.92
2022-12-11T23:08:40.798Z,-0.99
2022-12-11T23:11:24.457Z,-0.99
2022-12-11T23:13:52.479Z,-1.02
2022-12-11T23:16:20.412Z,-1.04
2022-12-11T23:18:48.009Z,-1.08
2022-12-11T23:21:15.672Z,-1.06
2022-12-11T23:23:43.615Z,-1.08
2022-12-11T23:26:12.784Z,-1.08
2022-12-11T23:28:41.196Z,-1.09
2022-12-11T23:31:08.974Z,-1.05
2022-12-11T23:33:36.680Z,-1.05
2022-12-11T23:36:04.782Z,-1.04
2022-12-11T23:38:32.684Z,-1.02
2022-12-11T23:41:01.496Z,-1.04
2022-12-11T23:43:28.792Z,-1.02
2022-12-11T23:45:56.803Z,-1.07
2022-12-11T23:48:24.793Z,-1.09
2022-12-11T23:50:52.692Z,-1.12
2022-12-11T23:53:20.584Z,-1.14
2022-12-11T23:55:48.010Z,-1.20
2022-12-11T23:58:15.698Z,-1.22
